sensor_id;sensor_type;location;lat;lon;timestamp;P1;durP1;ratioP1;P2;durP2;ratioP2
2748;SDS011;1382;52.142;11.618;2023-08-06T00:00:37;5.53;;;3.20;;
2748;SDS011;1382;52.142;11.618;2023-08-06T00:03:04;5.30;;;4.27;;
2748;SDS011;1382;52.142;11.618;2023-08-06T00:05:32;3.93;;;3.50;;
2748;SDS011;1382;52.142;11.618;2023-08-06T00:08:00;6.77;;;4.13;;
2748;SDS011;1382;52.142;11.618;2023-08-06T00:10:27;3.90;;;3.47;;
2748;SDS011;1382;52.142;11.618;2023-08-06T00:12:54;9.00;;;3.70;;
2748;SDS011;1382;52.142;11.618;2023-08-06T00:15:21;3.80;;;3.27;;
2748;SDS011;1382;52.142;11.618;2023-08-06T00:17:48;7.90;;;3.40;;
2748;SDS011;1382;52.142;11.618;2023-08-06T00:20:15;3.50;;;3.17;;
2748;SDS011;1382;52.142;11.618;2023-08-06T00:22:42;8.27;;;3.83;;
2748;SDS011;1382;52.142;11.618;2023-08-06T00:25:10;7.47;;;3.70;;
2748;SDS011;1382;52.142;11.618;2023-08-06T00:27:37;5.03;;;2.83;;
2748;SDS011;1382;52.142;11.618;2023-08-06T00:30:04;2.87;;;2.40;;
2748;SDS011;1382;52.142;11.618;2023-08-06T00:32:32;4.83;;;3.07;;
2748;SDS011;1382;52.142;11.618;2023-08-06T00:34:59;5.23;;;3.63;;
2748;SDS011;1382;52.142;11.618;2023-08-06T00:37:25;5.87;;;3.23;;
2748;SDS011;1382;52.142;11.618;2023-08-06T00:39:52;3.80;;;3.20;;
2748;SDS011;1382;52.142;11.618;2023-08-06T00:42:20;5.83;;;3.40;;
2748;SDS011;1382;52.142;11.618;2023-08-06T00:44:49;8.30;;;2.20;;
2748;SDS011;1382;52.142;11.618;2023-08-06T00:47:16;3.13;;;2.83;;
2748;SDS011;1382;52.142;11.618;2023-08-06T00:49:43;5.50;;;2.47;;
2748;SDS011;1382;52.142;11.618;2023-08-06T00:52:10;6.90;;;3.57;;
2748;SDS011;1382;52.142;11.618;2023-08-06T00:54:37;7.77;;;3.20;;
2748;SDS011;1382;52.142;11.618;2023-08-06T00:57:04;6.67;;;3.00;;
2748;SDS011;1382;52.142;11.618;2023-08-06T00:59:34;2.80;;;2.60;;
2748;SDS011;1382;52.142;11.618;2023-08-06T01:02:02;3.83;;;2.90;;
2748;SDS011;1382;52.142;11.618;2023-08-06T01:04:29;3.30;;;2.70;;
2748;SDS011;1382;52.142;11.618;2023-08-06T01:06:59;4.33;;;2.40;;
2748;SDS011;1382;52.142;11.618;2023-08-06T01:09:32;3.07;;;2.67;;
2748;SDS011;1382;52.142;11.618;2023-08-06T01:12:09;3.53;;;2.70;;
2748;SDS011;1382;52.142;11.618;2023-08-06T01:14:48;3.67;;;3.00;;
2748;SDS011;1382;52.142;11.618;2023-08-06T01:17:23;3.90;;;3.40;;
2748;SDS011;1382;52.142;11.618;2023-08-06T01:19:51;4.03;;;2.80;;
2748;SDS011;1382;52.142;11.618;2023-08-06T01:22:19;3.83;;;2.87;;
2748;SDS011;1382;52.142;11.618;2023-08-06T01:24:46;3.63;;;2.57;;
2748;SDS011;1382;52.142;11.618;2023-08-06T01:27:17;2.80;;;2.50;;
2748;SDS011;1382;52.142;11.618;2023-08-06T01:29:52;3.10;;;2.77;;
2748;SDS011;1382;52.142;11.618;2023-08-06T01:32:26;4.93;;;3.43;;
2748;SDS011;1382;52.142;11.618;2023-08-06T01:34:55;4.70;;;2.40;;
2748;SDS011;1382;52.142;11.618;2023-08-06T01:37:26;3.97;;;2.40;;
2748;SDS011;1382;52.142;11.618;2023-08-06T01:39:54;3.93;;;3.00;;
2748;SDS011;1382;52.142;11.618;2023-08-06T01:42:21;7.17;;;3.00;;
2748;SDS011;1382;52.142;11.618;2023-08-06T01:44:48;3.10;;;2.77;;
2748;SDS011;1382;52.142;11.618;2023-08-06T01:47:14;2.87;;;2.40;;
2748;SDS011;1382;52.142;11.618;2023-08-06T01:49:41;4.57;;;2.00;;
2748;SDS011;1382;52.142;11.618;2023-08-06T01:52:08;3.30;;;2.43;;
2748;SDS011;1382;52.142;11.618;2023-08-06T01:54:36;2.13;;;1.87;;
2748;SDS011;1382;52.142;11.618;2023-08-06T01:57:03;5.03;;;2.70;;
2748;SDS011;1382;52.142;11.618;2023-08-06T01:59:30;6.87;;;2.60;;
2748;SDS011;1382;52.142;11.618;2023-08-06T02:01:57;3.23;;;2.33;;
2748;SDS011;1382;52.142;11.618;2023-08-06T02:04:24;2.80;;;2.33;;
2748;SDS011;1382;52.142;11.618;2023-08-06T02:06:51;3.57;;;2.53;;
2748;SDS011;1382;52.142;11.618;2023-08-06T02:09:18;2.20;;;1.73;;
2748;SDS011;1382;52.142;11.618;2023-08-06T02:11:46;4.30;;;2.10;;
2748;SDS011;1382;52.142;11.618;2023-08-06T02:14:13;3.43;;;2.50;;
2748;SDS011;1382;52.142;11.618;2023-08-06T02:16:40;8.40;;;2.37;;
2748;SDS011;1382;52.142;11.618;2023-08-06T02:19:07;4.73;;;2.30;;
2748;SDS011;1382;52.142;11.618;2023-08-06T02:21:33;3.13;;;2.33;;
2748;SDS011;1382;52.142;11.618;2023-08-06T02:24:00;2.47;;;2.27;;
2748;SDS011;1382;52.142;11.618;2023-08-06T02:26:27;3.70;;;2.17;;
2748;SDS011;1382;52.142;11.618;2023-08-06T02:28:55;3.30;;;2.67;;
2748;SDS011;1382;52.142;11.618;2023-08-06T02:31:22;2.00;;;1.87;;
2748;SDS011;1382;52.142;11.618;2023-08-06T02:33:49;2.23;;;2.00;;
2748;SDS011;1382;52.142;11.618;2023-08-06T02:36:16;3.33;;;2.13;;
2748;SDS011;1382;52.142;11.618;2023-08-06T02:38:43;3.57;;;2.00;;
2748;SDS011;1382;52.142;11.618;2023-08-06T02:41:09;4.43;;;2.60;;
2748;SDS011;1382;52.142;11.618;2023-08-06T02:43:36;3.77;;;2.53;;
2748;SDS011;1382;52.142;11.618;2023-08-06T02:46:05;3.17;;;2.90;;
2748;SDS011;1382;52.142;11.618;2023-08-06T02:48:31;4.53;;;3.33;;
2748;SDS011;1382;52.142;11.618;2023-08-06T02:50:58;3.67;;;3.37;;
2748;SDS011;1382;52.142;11.618;2023-08-06T02:53:26;2.83;;;2.50;;
2748;SDS011;1382;52.142;11.618;2023-08-06T02:55:53;2.87;;;2.67;;
2748;SDS011;1382;52.142;11.618;2023-08-06T02:58:19;4.33;;;2.40;;
2748;SDS011;1382;52.142;11.618;2023-08-06T03:00:46;2.77;;;2.27;;
2748;SDS011;1382;52.142;11.618;2023-08-06T03:03:26;3.90;;;2.47;;
2748;SDS011;1382;52.142;11.618;2023-08-06T03:05:53;3.70;;;2.57;;
2748;SDS011;1382;52.142;11.618;2023-08-06T03:08:19;4.03;;;3.20;;
2748;SDS011;1382;52.142;11.618;2023-08-06T03:10:46;5.80;;;3.27;;
2748;SDS011;1382;52.142;11.618;2023-08-06T03:13:13;3.13;;;2.60;;
2748;SDS011;1382;52.142;11.618;2023-08-06T03:15:40;3.10;;;2.60;;
2748;SDS011;1382;52.142;11.618;2023-08-06T03:18:07;3.60;;;2.70;;
2748;SDS011;1382;52.142;11.618;2023-08-06T03:20:35;3.63;;;2.83;;
2748;SDS011;1382;52.142;11.618;2023-08-06T03:23:02;3.17;;;2.93;;
2748;SDS011;1382;52.142;11.618;2023-08-06T03:25:29;3.67;;;2.80;;
2748;SDS011;1382;52.142;11.618;2023-08-06T03:27:55;3.13;;;2.80;;
2748;SDS011;1382;52.142;11.618;2023-08-06T03:30:22;4.83;;;2.83;;
2748;SDS011;1382;52.142;11.618;2023-08-06T03:32:49;2.90;;;2.70;;
2748;SDS011;1382;52.142;11.618;2023-08-06T03:35:16;4.93;;;4.43;;
2748;SDS011;1382;52.142;11.618;2023-08-06T03:37:44;3.87;;;2.50;;
2748;SDS011;1382;52.142;11.618;2023-08-06T03:40:11;4.27;;;2.83;;
2748;SDS011;1382;52.142;11.618;2023-08-06T03:42:38;5.10;;;3.30;;
2748;SDS011;1382;52.142;11.618;2023-08-06T03:45:05;5.53;;;4.67;;
2748;SDS011;1382;52.142;11.618;2023-08-06T03:47:32;5.93;;;4.37;;
2748;SDS011;1382;52.142;11.618;2023-08-06T03:49:59;3.83;;;3.50;;
2748;SDS011;1382;52.142;11.618;2023-08-06T03:52:26;3.53;;;2.67;;
2748;SDS011;1382;52.142;11.618;2023-08-06T03:54:54;2.20;;;1.90;;
2748;SDS011;1382;52.142;11.618;2023-08-06T03:57:21;4.93;;;3.17;;
2748;SDS011;1382;52.142;11.618;2023-08-06T03:59:48;3.63;;;3.00;;
2748;SDS011;1382;52.142;11.618;2023-08-06T04:02:20;5.13;;;3.03;;
2748;SDS011;1382;52.142;11.618;2023-08-06T04:04:47;3.47;;;3.00;;
2748;SDS011;1382;52.142;11.618;2023-08-06T04:07:14;4.50;;;3.80;;
2748;SDS011;1382;52.142;11.618;2023-08-06T04:09:51;3.10;;;2.80;;
2748;SDS011;1382;52.142;11.618;2023-08-06T04:12:20;4.00;;;3.20;;
2748;SDS011;1382;52.142;11.618;2023-08-06T04:14:48;5.63;;;2.80;;
2748;SDS011;1382;52.142;11.618;2023-08-06T04:17:16;4.97;;;2.80;;
2748;SDS011;1382;52.142;11.618;2023-08-06T04:19:43;4.77;;;3.00;;
2748;SDS011;1382;52.142;11.618;2023-08-06T04:22:10;4.50;;;3.13;;
2748;SDS011;1382;52.142;11.618;2023-08-06T04:24:37;4.37;;;3.00;;
2748;SDS011;1382;52.142;11.618;2023-08-06T04:27:04;6.63;;;2.93;;
2748;SDS011;1382;52.142;11.618;2023-08-06T04:29:32;5.30;;;3.00;;
2748;SDS011;1382;52.142;11.618;2023-08-06T04:31:59;4.90;;;4.00;;
2748;SDS011;1382;52.142;11.618;2023-08-06T04:34:26;3.23;;;2.90;;
2748;SDS011;1382;52.142;11.618;2023-08-06T04:36:52;3.63;;;2.90;;
2748;SDS011;1382;52.142;11.618;2023-08-06T04:39:19;5.37;;;4.00;;
2748;SDS011;1382;52.142;11.618;2023-08-06T04:41:46;3.60;;;2.90;;
2748;SDS011;1382;52.142;11.618;2023-08-06T04:44:12;5.43;;;3.67;;
2748;SDS011;1382;52.142;11.618;2023-08-06T04:46:41;4.40;;;3.77;;
2748;SDS011;1382;52.142;11.618;2023-08-06T04:49:07;10.33;;;3.50;;
2748;SDS011;1382;52.142;11.618;2023-08-06T04:51:34;5.80;;;3.60;;
2748;SDS011;1382;52.142;11.618;2023-08-06T04:54:02;2.97;;;2.77;;
2748;SDS011;1382;52.142;11.618;2023-08-06T04:56:28;4.20;;;3.10;;
2748;SDS011;1382;52.142;11.618;2023-08-06T04:58:55;7.50;;;3.40;;
2748;SDS011;1382;52.142;11.618;2023-08-06T05:01:23;3.03;;;2.77;;
2748;SDS011;1382;52.142;11.618;2023-08-06T05:03:51;4.77;;;3.40;;
2748;SDS011;1382;52.142;11.618;2023-08-06T05:06:18;6.83;;;3.73;;
2748;SDS011;1382;52.142;11.618;2023-08-06T05:08:44;6.53;;;4.27;;
2748;SDS011;1382;52.142;11.618;2023-08-06T05:11:11;4.93;;;3.97;;
2748;SDS011;1382;52.142;11.618;2023-08-06T05:13:38;4.70;;;3.83;;
2748;SDS011;1382;52.142;11.618;2023-08-06T05:16:05;4.30;;;3.60;;
2748;SDS011;1382;52.142;11.618;2023-08-06T05:18:32;5.10;;;4.10;;
2748;SDS011;1382;52.142;11.618;2023-08-06T05:21:00;6.87;;;4.70;;
2748;SDS011;1382;52.142;11.618;2023-08-06T05:23:27;5.23;;;4.33;;
2748;SDS011;1382;52.142;11.618;2023-08-06T05:25:54;4.30;;;3.90;;
2748;SDS011;1382;52.142;11.618;2023-08-06T05:28:20;5.63;;;3.17;;
2748;SDS011;1382;52.142;11.618;2023-08-06T05:30:47;5.30;;;3.73;;
2748;SDS011;1382;52.142;11.618;2023-08-06T05:33:14;9.93;;;4.50;;
2748;SDS011;1382;52.142;11.618;2023-08-06T05:35:41;4.53;;;4.13;;
2748;SDS011;1382;52.142;11.618;2023-08-06T05:38:09;8.00;;;4.80;;
2748;SDS011;1382;52.142;11.618;2023-08-06T05:40:36;6.77;;;4.10;;
2748;SDS011;1382;52.142;11.618;2023-08-06T05:43:03;7.33;;;4.87;;
2748;SDS011;1382;52.142;11.618;2023-08-06T05:45:29;4.77;;;4.03;;
2748;SDS011;1382;52.142;11.618;2023-08-06T05:47:56;6.57;;;4.00;;
2748;SDS011;1382;52.142;11.618;2023-08-06T05:50:23;5.43;;;4.63;;
2748;SDS011;1382;52.142;11.618;2023-08-06T05:52:50;5.03;;;4.37;;
2748;SDS011;1382;52.142;11.618;2023-08-06T05:55:18;5.87;;;4.13;;
2748;SDS011;1382;52.142;11.618;2023-08-06T05:57:45;4.90;;;4.30;;
2748;SDS011;1382;52.142;11.618;2023-08-06T06:00:12;8.00;;;5.70;;
2748;SDS011;1382;52.142;11.618;2023-08-06T06:02:40;7.20;;;5.17;;
2748;SDS011;1382;52.142;11.618;2023-08-06T06:05:07;7.47;;;5.10;;
2748;SDS011;1382;52.142;11.618;2023-08-06T06:07:34;7.10;;;5.37;;
2748;SDS011;1382;52.142;11.618;2023-08-06T06:10:01;5.03;;;4.53;;
2748;SDS011;1382;52.142;11.618;2023-08-06T06:12:29;7.63;;;4.67;;
2748;SDS011;1382;52.142;11.618;2023-08-06T06:14:56;6.60;;;5.77;;
2748;SDS011;1382;52.142;11.618;2023-08-06T06:17:23;5.50;;;4.70;;
2748;SDS011;1382;52.142;11.618;2023-08-06T06:19:49;7.70;;;5.60;;
2748;SDS011;1382;52.142;11.618;2023-08-06T06:22:16;6.30;;;5.70;;
2748;SDS011;1382;52.142;11.618;2023-08-06T06:24:43;8.97;;;4.97;;
2748;SDS011;1382;52.142;11.618;2023-08-06T06:27:10;6.10;;;4.47;;
2748;SDS011;1382;52.142;11.618;2023-08-06T06:29:38;7.13;;;5.80;;
2748;SDS011;1382;52.142;11.618;2023-08-06T06:32:05;6.73;;;5.83;;
2748;SDS011;1382;52.142;11.618;2023-08-06T06:34:32;7.07;;;6.13;;
2748;SDS011;1382;52.142;11.618;2023-08-06T06:36:59;7.70;;;5.93;;
2748;SDS011;1382;52.142;11.618;2023-08-06T06:39:26;10.67;;;5.93;;
2748;SDS011;1382;52.142;11.618;2023-08-06T06:41:52;7.67;;;5.60;;
2748;SDS011;1382;52.142;11.618;2023-08-06T06:44:20;6.83;;;5.97;;
2748;SDS011;1382;52.142;11.618;2023-08-06T06:46:48;6.23;;;5.20;;
2748;SDS011;1382;52.142;11.618;2023-08-06T06:49:15;6.00;;;4.53;;
2748;SDS011;1382;52.142;11.618;2023-08-06T06:51:41;5.47;;;4.97;;
2748;SDS011;1382;52.142;11.618;2023-08-06T06:54:08;6.53;;;5.63;;
2748;SDS011;1382;52.142;11.618;2023-08-06T06:56:35;7.40;;;5.73;;
2748;SDS011;1382;52.142;11.618;2023-08-06T06:59:02;6.77;;;5.73;;
2748;SDS011;1382;52.142;11.618;2023-08-06T07:01:28;6.27;;;5.60;;
2748;SDS011;1382;52.142;11.618;2023-08-06T07:03:57;6.13;;;5.53;;
2748;SDS011;1382;52.142;11.618;2023-08-06T07:06:23;8.90;;;6.77;;
2748;SDS011;1382;52.142;11.618;2023-08-06T07:08:50;10.63;;;5.57;;
2748;SDS011;1382;52.142;11.618;2023-08-06T07:11:17;9.93;;;7.20;;
2748;SDS011;1382;52.142;11.618;2023-08-06T07:13:44;9.77;;;7.27;;
2748;SDS011;1382;52.142;11.618;2023-08-06T07:16:10;8.30;;;6.40;;
2748;SDS011;1382;52.142;11.618;2023-08-06T07:18:37;7.87;;;7.07;;
2748;SDS011;1382;52.142;11.618;2023-08-06T07:21:06;8.83;;;6.77;;
2748;SDS011;1382;52.142;11.618;2023-08-06T07:23:32;7.13;;;5.93;;
2748;SDS011;1382;52.142;11.618;2023-08-06T07:25:59;7.90;;;6.77;;
2748;SDS011;1382;52.142;11.618;2023-08-06T07:28:26;11.83;;;7.03;;
2748;SDS011;1382;52.142;11.618;2023-08-06T07:30:53;10.23;;;6.50;;
2748;SDS011;1382;52.142;11.618;2023-08-06T07:33:20;8.17;;;6.40;;
2748;SDS011;1382;52.142;11.618;2023-08-06T07:35:46;7.87;;;6.07;;
2748;SDS011;1382;52.142;11.618;2023-08-06T07:38:14;6.73;;;6.03;;
2748;SDS011;1382;52.142;11.618;2023-08-06T07:40:41;8.53;;;6.03;;
2748;SDS011;1382;52.142;11.618;2023-08-06T07:43:08;10.63;;;5.20;;
2748;SDS011;1382;52.142;11.618;2023-08-06T07:45:35;5.50;;;4.60;;
2748;SDS011;1382;52.142;11.618;2023-08-06T07:48:02;5.03;;;4.27;;
2748;SDS011;1382;52.142;11.618;2023-08-06T07:50:30;6.57;;;5.13;;
2748;SDS011;1382;52.142;11.618;2023-08-06T07:52:57;6.53;;;5.30;;
2748;SDS011;1382;52.142;11.618;2023-08-06T07:55:25;4.50;;;3.47;;
2748;SDS011;1382;52.142;11.618;2023-08-06T07:57:52;3.63;;;3.30;;
2748;SDS011;1382;52.142;11.618;2023-08-06T08:00:19;8.67;;;3.90;;
2748;SDS011;1382;52.142;11.618;2023-08-06T08:02:46;3.37;;;3.07;;
2748;SDS011;1382;52.142;11.618;2023-08-06T08:05:13;6.07;;;3.87;;
2748;SDS011;1382;52.142;11.618;2023-08-06T08:07:40;6.43;;;3.80;;
2748;SDS011;1382;52.142;11.618;2023-08-06T08:10:07;7.37;;;3.23;;
2748;SDS011;1382;52.142;11.618;2023-08-06T08:12:35;3.03;;;2.73;;
2748;SDS011;1382;52.142;11.618;2023-08-06T08:15:02;3.30;;;3.00;;
2748;SDS011;1382;52.142;11.618;2023-08-06T08:17:30;7.23;;;3.00;;
2748;SDS011;1382;52.142;11.618;2023-08-06T08:19:57;3.17;;;2.47;;
2748;SDS011;1382;52.142;11.618;2023-08-06T08:22:23;6.00;;;3.07;;
2748;SDS011;1382;52.142;11.618;2023-08-06T08:24:50;3.87;;;3.40;;
2748;SDS011;1382;52.142;11.618;2023-08-06T08:27:17;4.90;;;2.93;;
2748;SDS011;1382;52.142;11.618;2023-08-06T08:29:45;3.73;;;3.43;;
2748;SDS011;1382;52.142;11.618;2023-08-06T08:32:12;6.63;;;3.40;;
2748;SDS011;1382;52.142;11.618;2023-08-06T08:34:39;4.03;;;3.23;;
2748;SDS011;1382;52.142;11.618;2023-08-06T08:37:06;6.47;;;3.37;;
2748;SDS011;1382;52.142;11.618;2023-08-06T08:39:33;5.37;;;2.67;;
2748;SDS011;1382;52.142;11.618;2023-08-06T08:42:00;3.00;;;2.70;;
2748;SDS011;1382;52.142;11.618;2023-08-06T08:44:28;5.83;;;3.27;;
2748;SDS011;1382;52.142;11.618;2023-08-06T08:46:56;6.87;;;2.83;;
2748;SDS011;1382;52.142;11.618;2023-08-06T08:49:24;5.03;;;2.77;;
2748;SDS011;1382;52.142;11.618;2023-08-06T08:51:53;3.43;;;3.07;;
2748;SDS011;1382;52.142;11.618;2023-08-06T08:54:23;4.03;;;3.07;;
2748;SDS011;1382;52.142;11.618;2023-08-06T08:56:50;3.83;;;3.20;;
2748;SDS011;1382;52.142;11.618;2023-08-06T08:59:17;4.17;;;2.73;;
2748;SDS011;1382;52.142;11.618;2023-08-06T09:01:44;3.40;;;3.10;;
2748;SDS011;1382;52.142;11.618;2023-08-06T09:04:15;4.10;;;3.50;;
2748;SDS011;1382;52.142;11.618;2023-08-06T09:06:45;2.97;;;2.33;;
2748;SDS011;1382;52.142;11.618;2023-08-06T09:09:19;2.50;;;2.30;;
2748;SDS011;1382;52.142;11.618;2023-08-06T09:11:51;6.53;;;3.37;;
2748;SDS011;1382;52.142;11.618;2023-08-06T09:14:21;3.10;;;2.80;;
2748;SDS011;1382;52.142;11.618;2023-08-06T09:16:48;3.00;;;2.70;;
2748;SDS011;1382;52.142;11.618;2023-08-06T09:19:17;4.27;;;2.60;;
2748;SDS011;1382;52.142;11.618;2023-08-06T09:21:45;3.47;;;3.00;;
2748;SDS011;1382;52.142;11.618;2023-08-06T09:24:12;6.47;;;4.23;;
2748;SDS011;1382;52.142;11.618;2023-08-06T09:26:40;3.67;;;3.37;;
2748;SDS011;1382;52.142;11.618;2023-08-06T09:29:08;2.83;;;2.63;;
2748;SDS011;1382;52.142;11.618;2023-08-06T09:31:40;3.30;;;3.00;;
2748;SDS011;1382;52.142;11.618;2023-08-06T09:34:10;6.40;;;3.73;;
2748;SDS011;1382;52.142;11.618;2023-08-06T09:36:40;4.17;;;3.50;;
2748;SDS011;1382;52.142;11.618;2023-08-06T09:39:12;7.27;;;4.37;;
2748;SDS011;1382;52.142;11.618;2023-08-06T09:41:39;4.73;;;4.10;;
2748;SDS011;1382;52.142;11.618;2023-08-06T09:44:11;4.10;;;3.80;;
2748;SDS011;1382;52.142;11.618;2023-08-06T09:46:42;4.47;;;4.07;;
2748;SDS011;1382;52.142;11.618;2023-08-06T09:49:09;6.80;;;4.27;;
2748;SDS011;1382;52.142;11.618;2023-08-06T09:51:36;3.10;;;2.77;;
2748;SDS011;1382;52.142;11.618;2023-08-06T09:54:05;5.23;;;4.30;;
2748;SDS011;1382;52.142;11.618;2023-08-06T09:56:50;4.87;;;4.37;;
2748;SDS011;1382;52.142;11.618;2023-08-06T09:59:17;4.67;;;4.17;;
2748;SDS011;1382;52.142;11.618;2023-08-06T10:01:45;4.43;;;4.00;;
2748;SDS011;1382;52.142;11.618;2023-08-06T10:04:12;5.47;;;4.90;;
2748;SDS011;1382;52.142;11.618;2023-08-06T10:06:49;5.80;;;5.23;;
2748;SDS011;1382;52.142;11.618;2023-08-06T10:09:18;7.70;;;6.23;;
2748;SDS011;1382;52.142;11.618;2023-08-06T10:11:46;6.10;;;5.50;;
2748;SDS011;1382;52.142;11.618;2023-08-06T10:14:18;6.17;;;5.57;;
2748;SDS011;1382;52.142;11.618;2023-08-06T10:16:49;4.77;;;4.37;;
2748;SDS011;1382;52.142;11.618;2023-08-06T10:19:17;5.73;;;4.53;;
2748;SDS011;1382;52.142;11.618;2023-08-06T10:24:46;6.43;;;4.60;;
2748;SDS011;1382;52.142;11.618;2023-08-06T10:27:16;7.33;;;5.47;;
2748;SDS011;1382;52.142;11.618;2023-08-06T10:29:46;5.03;;;4.50;;
2748;SDS011;1382;52.142;11.618;2023-08-06T10:32:13;6.80;;;5.00;;
2748;SDS011;1382;52.142;11.618;2023-08-06T10:34:58;6.63;;;4.87;;
2748;SDS011;1382;52.142;11.618;2023-08-06T10:37:34;6.03;;;5.00;;
2748;SDS011;1382;52.142;11.618;2023-08-06T10:40:03;5.97;;;5.03;;
2748;SDS011;1382;52.142;11.618;2023-08-06T10:42:33;10.73;;;5.20;;
2748;SDS011;1382;52.142;11.618;2023-08-06T10:45:12;5.93;;;5.33;;
2748;SDS011;1382;52.142;11.618;2023-08-06T10:47:40;6.07;;;5.10;;
2748;SDS011;1382;52.142;11.618;2023-08-06T10:50:11;5.30;;;4.80;;
2748;SDS011;1382;52.142;11.618;2023-08-06T10:52:38;4.60;;;4.20;;
2748;SDS011;1382;52.142;11.618;2023-08-06T10:55:07;5.30;;;4.80;;
2748;SDS011;1382;52.142;11.618;2023-08-06T10:57:34;8.80;;;5.63;;
2748;SDS011;1382;52.142;11.618;2023-08-06T11:00:01;5.17;;;4.33;;
2748;SDS011;1382;52.142;11.618;2023-08-06T11:02:41;6.10;;;5.23;;
2748;SDS011;1382;52.142;11.618;2023-08-06T11:05:09;6.13;;;5.37;;
2748;SDS011;1382;52.142;11.618;2023-08-06T11:07:37;4.60;;;4.20;;
2748;SDS011;1382;52.142;11.618;2023-08-06T11:10:04;7.37;;;4.40;;
2748;SDS011;1382;52.142;11.618;2023-08-06T11:12:34;3.80;;;3.50;;
2748;SDS011;1382;52.142;11.618;2023-08-06T11:15:01;9.37;;;4.90;;
2748;SDS011;1382;52.142;11.618;2023-08-06T11:17:30;5.67;;;5.03;;
2748;SDS011;1382;52.142;11.618;2023-08-06T11:19:58;4.97;;;4.57;;
2748;SDS011;1382;52.142;11.618;2023-08-06T11:22:26;5.27;;;3.83;;
2748;SDS011;1382;52.142;11.618;2023-08-06T11:24:53;4.07;;;3.67;;
2748;SDS011;1382;52.142;11.618;2023-08-06T11:27:21;3.70;;;3.40;;
2748;SDS011;1382;52.142;11.618;2023-08-06T11:29:48;6.40;;;4.70;;
2748;SDS011;1382;52.142;11.618;2023-08-06T11:32:15;5.27;;;4.77;;
2748;SDS011;1382;52.142;11.618;2023-08-06T11:34:43;4.57;;;4.27;;
2748;SDS011;1382;52.142;11.618;2023-08-06T11:37:10;4.50;;;4.10;;
2748;SDS011;1382;52.142;11.618;2023-08-06T11:39:38;5.53;;;5.03;;
2748;SDS011;1382;52.142;11.618;2023-08-06T11:42:10;5.40;;;4.83;;
2748;SDS011;1382;52.142;11.618;2023-08-06T11:44:40;4.03;;;3.63;;
2748;SDS011;1382;52.142;11.618;2023-08-06T11:47:11;4.33;;;3.67;;
2748;SDS011;1382;52.142;11.618;2023-08-06T11:49:40;3.87;;;3.57;;
2748;SDS011;1382;52.142;11.618;2023-08-06T11:52:09;4.30;;;4.00;;
2748;SDS011;1382;52.142;11.618;2023-08-06T11:54:37;3.70;;;3.40;;
2748;SDS011;1382;52.142;11.618;2023-08-06T11:57:05;3.73;;;3.43;;
2748;SDS011;1382;52.142;11.618;2023-08-06T11:59:32;4.17;;;3.77;;
2748;SDS011;1382;52.142;11.618;2023-08-06T12:02:01;3.73;;;3.33;;
2748;SDS011;1382;52.142;11.618;2023-08-06T12:04:28;4.37;;;3.83;;
2748;SDS011;1382;52.142;11.618;2023-08-06T12:06:55;5.10;;;4.00;;
2748;SDS011;1382;52.142;11.618;2023-08-06T12:09:30;6.47;;;4.30;;
2748;SDS011;1382;52.142;11.618;2023-08-06T12:11:57;4.03;;;3.73;;
2748;SDS011;1382;52.142;11.618;2023-08-06T12:14:24;5.10;;;4.70;;
2748;SDS011;1382;52.142;11.618;2023-08-06T12:16:50;6.00;;;4.23;;
2748;SDS011;1382;52.142;11.618;2023-08-06T12:19:19;3.93;;;3.53;;
2748;SDS011;1382;52.142;11.618;2023-08-06T12:21:45;4.07;;;3.67;;
2748;SDS011;1382;52.142;11.618;2023-08-06T12:24:12;4.37;;;3.97;;
2748;SDS011;1382;52.142;11.618;2023-08-06T12:26:39;5.30;;;3.53;;
2748;SDS011;1382;52.142;11.618;2023-08-06T12:29:06;3.70;;;3.40;;
2748;SDS011;1382;52.142;11.618;2023-08-06T12:31:33;3.57;;;3.30;;
2748;SDS011;1382;52.142;11.618;2023-08-06T12:34:00;3.37;;;3.07;;
2748;SDS011;1382;52.142;11.618;2023-08-06T12:36:28;3.57;;;3.27;;
2748;SDS011;1382;52.142;11.618;2023-08-06T12:38:54;3.20;;;2.90;;
2748;SDS011;1382;52.142;11.618;2023-08-06T12:41:22;2.80;;;2.60;;
2748;SDS011;1382;52.142;11.618;2023-08-06T12:43:48;3.33;;;3.03;;
2748;SDS011;1382;52.142;11.618;2023-08-06T12:46:15;3.40;;;3.10;;
2748;SDS011;1382;52.142;11.618;2023-08-06T12:48:42;4.57;;;2.57;;
2748;SDS011;1382;52.142;11.618;2023-08-06T12:51:09;2.97;;;2.67;;
2748;SDS011;1382;52.142;11.618;2023-08-06T12:53:37;3.47;;;2.50;;
2748;SDS011;1382;52.142;11.618;2023-08-06T12:56:04;4.83;;;2.60;;
2748;SDS011;1382;52.142;11.618;2023-08-06T12:58:31;2.93;;;2.63;;
2748;SDS011;1382;52.142;11.618;2023-08-06T13:00:58;5.50;;;2.80;;
2748;SDS011;1382;52.142;11.618;2023-08-06T13:03:24;4.83;;;2.63;;
2748;SDS011;1382;52.142;11.618;2023-08-06T13:05:51;2.60;;;2.40;;
2748;SDS011;1382;52.142;11.618;2023-08-06T13:08:18;3.17;;;2.87;;
2748;SDS011;1382;52.142;11.618;2023-08-06T13:10:46;4.07;;;2.10;;
2748;SDS011;1382;52.142;11.618;2023-08-06T13:13:13;2.13;;;2.03;;
2748;SDS011;1382;52.142;11.618;2023-08-06T13:15:40;2.40;;;2.10;;
2748;SDS011;1382;52.142;11.618;2023-08-06T13:18:06;2.70;;;2.30;;
2748;SDS011;1382;52.142;11.618;2023-08-06T13:20:33;4.13;;;2.23;;
2748;SDS011;1382;52.142;11.618;2023-08-06T13:23:00;4.10;;;2.67;;
2748;SDS011;1382;52.142;11.618;2023-08-06T13:25:27;2.77;;;2.57;;
2748;SDS011;1382;52.142;11.618;2023-08-06T13:27:55;2.90;;;2.60;;
2748;SDS011;1382;52.142;11.618;2023-08-06T13:30:22;2.13;;;1.70;;
2748;SDS011;1382;52.142;11.618;2023-08-06T13:32:49;2.67;;;2.40;;
2748;SDS011;1382;52.142;11.618;2023-08-06T13:35:16;2.67;;;2.47;;
2748;SDS011;1382;52.142;11.618;2023-08-06T13:37:42;3.07;;;2.53;;
2748;SDS011;1382;52.142;11.618;2023-08-06T13:40:09;3.27;;;2.30;;
2748;SDS011;1382;52.142;11.618;2023-08-06T13:42:37;2.97;;;2.00;;
2748;SDS011;1382;52.142;11.618;2023-08-06T13:45:05;2.57;;;2.37;;
2748;SDS011;1382;52.142;11.618;2023-08-06T13:47:33;2.27;;;2.07;;
2748;SDS011;1382;52.142;11.618;2023-08-06T13:49:59;2.17;;;2.00;;
2748;SDS011;1382;52.142;11.618;2023-08-06T13:52:26;3.73;;;2.40;;
2748;SDS011;1382;52.142;11.618;2023-08-06T13:54:53;2.63;;;2.43;;
2748;SDS011;1382;52.142;11.618;2023-08-06T13:57:20;3.63;;;2.53;;
2748;SDS011;1382;52.142;11.618;2023-08-06T13:59:47;2.37;;;2.17;;
2748;SDS011;1382;52.142;11.618;2023-08-06T14:02:15;3.17;;;2.13;;
2748;SDS011;1382;52.142;11.618;2023-08-06T14:04:42;3.17;;;2.00;;
2748;SDS011;1382;52.142;11.618;2023-08-06T14:07:08;2.20;;;2.00;;
2748;SDS011;1382;52.142;11.618;2023-08-06T14:09:35;3.40;;;2.80;;
2748;SDS011;1382;52.142;11.618;2023-08-06T14:12:02;3.30;;;2.03;;
2748;SDS011;1382;52.142;11.618;2023-08-06T14:14:29;3.63;;;2.40;;
2748;SDS011;1382;52.142;11.618;2023-08-06T14:16:56;2.30;;;2.10;;
2748;SDS011;1382;52.142;11.618;2023-08-06T14:19:25;3.17;;;2.43;;
2748;SDS011;1382;52.142;11.618;2023-08-06T14:21:52;2.43;;;2.23;;
2748;SDS011;1382;52.142;11.618;2023-08-06T14:24:18;1.97;;;1.80;;
2748;SDS011;1382;52.142;11.618;2023-08-06T14:26:45;2.50;;;2.30;;
2748;SDS011;1382;52.142;11.618;2023-08-06T14:29:12;2.93;;;2.63;;
2748;SDS011;1382;52.142;11.618;2023-08-06T14:31:39;2.67;;;1.97;;
2748;SDS011;1382;52.142;11.618;2023-08-06T14:34:06;3.97;;;2.00;;
2748;SDS011;1382;52.142;11.618;2023-08-06T14:36:34;1.77;;;1.63;;
2748;SDS011;1382;52.142;11.618;2023-08-06T14:39:01;2.10;;;2.00;;
2748;SDS011;1382;52.142;11.618;2023-08-06T14:41:28;2.83;;;2.10;;
2748;SDS011;1382;52.142;11.618;2023-08-06T14:43:55;2.30;;;2.10;;
2748;SDS011;1382;52.142;11.618;2023-08-06T14:46:22;2.67;;;2.30;;
2748;SDS011;1382;52.142;11.618;2023-08-06T14:48:48;2.73;;;2.03;;
2748;SDS011;1382;52.142;11.618;2023-08-06T14:51:16;2.27;;;2.07;;
2748;SDS011;1382;52.142;11.618;2023-08-06T14:53:44;3.60;;;1.90;;
2748;SDS011;1382;52.142;11.618;2023-08-06T14:56:11;6.30;;;2.20;;
2748;SDS011;1382;52.142;11.618;2023-08-06T14:58:37;3.30;;;2.60;;
2748;SDS011;1382;52.142;11.618;2023-08-06T15:01:04;2.50;;;2.30;;
2748;SDS011;1382;52.142;11.618;2023-08-06T15:03:31;3.40;;;2.20;;
2748;SDS011;1382;52.142;11.618;2023-08-06T15:05:58;2.00;;;1.90;;